• Join FlightAware (Why Join?)
  • Login
  • US Flag 
09:31AM EST


 

Airport Tracker/Info


-or-


 

Live Flight TrackerFlight Track Log ✈ AWI3897 ✈ 26-Aug-2013 ✈ KDCA - KPIT

Flight Track Log - Related Links

Times and Time Zones

All times are in EDT time to prevent confusion due to time zone crossing. See the AWI3897 flight status page for this flight to view local times or setup timezone preferences in your user account.

Time Position Orientation Groundspeed Altitude Reporting Facility
EDT Latitude Longitude Course Direction KTS MPH feet Rate Location/Type
03:22PM 38.8333 -77.0333 180° South 161 185 900  Level Potomac TRACON
03:23PM 38.7833 -77.0333 180° South 213 245 2,400 2,100 Climbing Potomac TRACON
03:24PM 38.7333 -77.0833 218° Southwest 266 306 5,100 2,520 Climbing Potomac TRACON
03:25PM 38.7667 -77.1333 311° West 269 310 7,300 2,400 Climbing Potomac TRACON
03:26PM 38.8333 -77.2000 322° Northwest 269 310 9,800 1,680 Climbing Potomac TRACON
03:28PM 38.9303 -77.3156 317° Northwest 282 325 12,100 1,440 Climbing Washington Center
03:29PM 39.0022 -77.3892 322° Northwest 306 352 13,900 1,620 Climbing Washington Center
03:30PM 39.0739 -77.4686 319° Northwest 328 377 15,400 1,380 Climbing Washington Center
03:31PM 39.1561 -77.5375 327° Northwest 343 395 16,800 1,260 Climbing Washington Center
03:32PM 39.2406 -77.6094 327° Northwest 358 412 18,000 1,140 Climbing Washington Center
03:33PM 39.3247 -77.6789 327° Northwest 358 412 19,100 900 Climbing Washington Center
03:34PM 39.4108 -77.7511 327° Northwest 363 418 19,900 420 Climbing Washington Center
03:35PM 39.5011 -77.8292 326° Northwest 373 429 20,000  Climbing Washington Center
03:36PM 39.5917 -77.9997 305° West 361 415 20,000  Level Cleveland Center
03:37PM 39.6217 -78.1225 288° West 351 404 20,000  Level Cleveland Center
03:38PM 39.6533 -78.2400 289° West 351 404 20,000  Level Cleveland Center
03:39PM 39.6869 -78.3575 290° West 351 404 20,000  Level Cleveland Center
03:40PM 39.7225 -78.4725 292° West 345 397 20,000 -120 Level Cleveland Center
03:41PM 39.7558 -78.5903 290° West 345 397 19,800 -840 Descending Cleveland Center
03:42PM 39.7914 -78.7189 290° West 345 397 18,400 -1,200 Descending Cleveland Center
03:43PM 39.8244 -78.8342 291° West 340 391 17,400 -1,140 Descending Cleveland Center
03:44PM 39.8572 -78.9442 291° West 340 391 16,200 -1,260 Descending Cleveland Center
03:45PM 39.8922 -79.0517 293° West 335 386 14,900 -1,260 Descending Cleveland Center
03:46PM 39.9206 -79.1592 289° West 323 372 13,700 -1,200 Descending Cleveland Center
03:47PM 39.9533 -79.2642 292° West 323 372 12,500 -1,200 Descending Cleveland Center
03:48PM 39.9856 -79.3664 292° West 323 372 11,300 -1,200 Descending Cleveland Center
03:49PM 40.0386 -79.4522 309° West 313 360 10,100 -660 Descending Cleveland Center
03:50PM 40.0936 -79.5300 313° West 301 346 10,000 -60 Descending Cleveland Center
03:51PM 40.1486 -79.6081 313° West 295 339 10,000  Level Cleveland Center
03:52PM 40.1992 -79.6806 312° West 285 328 10,000 -300 Level Cleveland Center
03:53PM 40.2433 -79.7400 314° West 259 298 9,500 -840 Descending Cleveland Center
03:54PM 40.2856 -79.7992 313° West 239 275 8,400 -1,320 Descending Cleveland Center
03:55PM 40.3233 -79.8561 311° West 217 250 6,900 -1,380 Descending Cleveland Center
03:56PM 40.3611 -79.9100 313° West 207 238 5,700 -1,380 Descending Cleveland Center
03:57PM 40.4011 -79.9642 314° West 207 238 4,200 -1,500 Descending Cleveland Center
03:59PM 40.4373 -80.0715 North  Level Estimated
04:06PM 40.4833 -80.2167 303° West  Level FlightAware Approximate
04:07PM 40.4915 -80.2329 303° West  Level Estimated
04:08PM 40.4915 -80.2329 303° West  Level Estimated
04:09PM 40.4915 -80.2329 303° West  Level Estimated
04:10PM 40.4915 -80.2329 303° West  Level Estimated
04:11PM 40.4915 -80.2329 303° West  Level Estimated